sensor_id;sensor_type;location;lat;lon;timestamp;P1;durP1;ratioP1;P2;durP2;ratioP2
24373;SDS011;12498;50.880;12.096;2023-05-15T00:00:50;14.52;;;11.63;;
24373;SDS011;12498;50.880;12.096;2023-05-15T00:03:16;14.32;;;10.90;;
24373;SDS011;12498;50.880;12.096;2023-05-15T00:05:42;15.23;;;11.43;;
24373;SDS011;12498;50.880;12.096;2023-05-15T00:08:08;13.38;;;10.35;;
24373;SDS011;12498;50.880;12.096;2023-05-15T00:10:34;13.20;;;10.65;;
24373;SDS011;12498;50.880;12.096;2023-05-15T00:13:00;14.82;;;11.35;;
24373;SDS011;12498;50.880;12.096;2023-05-15T00:15:26;14.45;;;10.75;;
24373;SDS011;12498;50.880;12.096;2023-05-15T00:17:52;14.38;;;10.73;;
24373;SDS011;12498;50.880;12.096;2023-05-15T00:20:19;12.57;;;10.45;;
24373;SDS011;12498;50.880;12.096;2023-05-15T00:22:45;13.45;;;11.23;;
24373;SDS011;12498;50.880;12.096;2023-05-15T00:25:11;13.18;;;10.70;;
24373;SDS011;12498;50.880;12.096;2023-05-15T00:27:37;13.32;;;10.52;;
24373;SDS011;12498;50.880;12.096;2023-05-15T00:30:03;15.13;;;11.70;;
24373;SDS011;12498;50.880;12.096;2023-05-15T00:32:29;15.35;;;11.60;;
24373;SDS011;12498;50.880;12.096;2023-05-15T00:34:55;13.40;;;11.05;;
24373;SDS011;12498;50.880;12.096;2023-05-15T00:37:22;19.10;;;11.48;;
24373;SDS011;12498;50.880;12.096;2023-05-15T00:39:48;13.68;;;11.02;;
24373;SDS011;12498;50.880;12.096;2023-05-15T00:42:14;14.52;;;10.50;;
24373;SDS011;12498;50.880;12.096;2023-05-15T00:44:41;14.02;;;10.52;;
24373;SDS011;12498;50.880;12.096;2023-05-15T00:47:09;15.77;;;10.68;;
24373;SDS011;12498;50.880;12.096;2023-05-15T00:49:36;15.93;;;11.40;;
24373;SDS011;12498;50.880;12.096;2023-05-15T00:52:02;15.50;;;11.30;;
24373;SDS011;12498;50.880;12.096;2023-05-15T00:54:29;15.73;;;11.27;;
24373;SDS011;12498;50.880;12.096;2023-05-15T00:56:55;15.00;;;11.73;;
24373;SDS011;12498;50.880;12.096;2023-05-15T01:01:50;19.05;;;12.30;;
24373;SDS011;12498;50.880;12.096;2023-05-15T01:04:16;15.80;;;12.48;;
24373;SDS011;12498;50.880;12.096;2023-05-15T01:06:42;14.20;;;12.05;;
24373;SDS011;12498;50.880;12.096;2023-05-15T01:09:08;15.60;;;12.35;;
24373;SDS011;12498;50.880;12.096;2023-05-15T01:11:34;14.57;;;11.95;;
24373;SDS011;12498;50.880;12.096;2023-05-15T01:14:05;15.30;;;11.88;;
24373;SDS011;12498;50.880;12.096;2023-05-15T01:16:32;16.65;;;12.02;;
24373;SDS011;12498;50.880;12.096;2023-05-15T01:18:58;14.68;;;12.05;;
24373;SDS011;12498;50.880;12.096;2023-05-15T01:21:26;14.57;;;10.98;;
24373;SDS011;12498;50.880;12.096;2023-05-15T01:28:59;14.52;;;11.98;;
24373;SDS011;12498;50.880;12.096;2023-05-15T01:31:26;14.80;;;11.63;;
24373;SDS011;12498;50.880;12.096;2023-05-15T01:33:58;15.05;;;11.93;;
24373;SDS011;12498;50.880;12.096;2023-05-15T01:36:33;15.38;;;11.10;;
24373;SDS011;12498;50.880;12.096;2023-05-15T01:39:01;14.02;;;11.15;;
24373;SDS011;12498;50.880;12.096;2023-05-15T01:41:28;15.73;;;11.88;;
24373;SDS011;12498;50.880;12.096;2023-05-15T01:46:44;12.98;;;10.52;;
24373;SDS011;12498;50.880;12.096;2023-05-15T01:49:12;12.35;;;10.55;;
24373;SDS011;12498;50.880;12.096;2023-05-15T01:51:38;16.92;;;10.77;;
24373;SDS011;12498;50.880;12.096;2023-05-15T01:54:08;13.27;;;10.45;;
24373;SDS011;12498;50.880;12.096;2023-05-15T01:56:35;13.13;;;11.02;;
24373;SDS011;12498;50.880;12.096;2023-05-15T01:59:01;14.50;;;11.05;;
24373;SDS011;12498;50.880;12.096;2023-05-15T02:01:28;16.50;;;12.35;;
24373;SDS011;12498;50.880;12.096;2023-05-15T02:03:57;12.57;;;10.68;;
24373;SDS011;12498;50.880;12.096;2023-05-15T02:06:23;16.17;;;10.65;;
24373;SDS011;12498;50.880;12.096;2023-05-15T02:08:50;13.45;;;11.07;;
24373;SDS011;12498;50.880;12.096;2023-05-15T02:11:16;13.60;;;10.68;;
24373;SDS011;12498;50.880;12.096;2023-05-15T02:13:42;15.20;;;10.50;;
24373;SDS011;12498;50.880;12.096;2023-05-15T02:16:09;13.82;;;11.07;;
24373;SDS011;12498;50.880;12.096;2023-05-15T02:18:35;13.27;;;10.68;;
24373;SDS011;12498;50.880;12.096;2023-05-15T02:21:02;12.50;;;10.02;;
24373;SDS011;12498;50.880;12.096;2023-05-15T02:23:28;14.98;;;11.55;;
24373;SDS011;12498;50.880;12.096;2023-05-15T02:28:23;15.45;;;11.43;;
24373;SDS011;12498;50.880;12.096;2023-05-15T02:31:00;13.75;;;11.23;;
24373;SDS011;12498;50.880;12.096;2023-05-15T02:36:17;14.93;;;11.55;;
24373;SDS011;12498;50.880;12.096;2023-05-15T02:38:46;12.52;;;11.00;;
24373;SDS011;12498;50.880;12.096;2023-05-15T02:41:13;14.57;;;10.52;;
24373;SDS011;12498;50.880;12.096;2023-05-15T02:43:39;17.45;;;11.18;;
24373;SDS011;12498;50.880;12.096;2023-05-15T02:46:06;16.60;;;11.35;;
24373;SDS011;12498;50.880;12.096;2023-05-15T02:48:33;14.55;;;11.68;;
24373;SDS011;12498;50.880;12.096;2023-05-15T02:51:00;16.55;;;12.32;;
24373;SDS011;12498;50.880;12.096;2023-05-15T02:53:26;17.20;;;12.32;;
24373;SDS011;12498;50.880;12.096;2023-05-15T02:55:53;13.57;;;11.38;;
24373;SDS011;12498;50.880;12.096;2023-05-15T02:58:19;14.55;;;11.80;;
24373;SDS011;12498;50.880;12.096;2023-05-15T03:00:45;17.30;;;12.38;;
24373;SDS011;12498;50.880;12.096;2023-05-15T03:03:11;16.85;;;12.18;;
24373;SDS011;12498;50.880;12.096;2023-05-15T03:05:37;16.15;;;12.20;;
24373;SDS011;12498;50.880;12.096;2023-05-15T03:08:04;17.08;;;12.60;;
24373;SDS011;12498;50.880;12.096;2023-05-15T03:10:30;17.63;;;12.73;;
24373;SDS011;12498;50.880;12.096;2023-05-15T03:12:55;15.40;;;12.38;;
24373;SDS011;12498;50.880;12.096;2023-05-15T03:15:24;15.45;;;13.00;;
24373;SDS011;12498;50.880;12.096;2023-05-15T03:17:50;16.45;;;12.68;;
24373;SDS011;12498;50.880;12.096;2023-05-15T03:20:16;15.95;;;12.32;;
24373;SDS011;12498;50.880;12.096;2023-05-15T03:22:42;16.88;;;11.90;;
24373;SDS011;12498;50.880;12.096;2023-05-15T03:25:09;17.35;;;12.45;;
24373;SDS011;12498;50.880;12.096;2023-05-15T03:27:36;16.42;;;12.10;;
24373;SDS011;12498;50.880;12.096;2023-05-15T03:30:02;17.00;;;12.70;;
24373;SDS011;12498;50.880;12.096;2023-05-15T03:32:28;15.95;;;11.90;;
24373;SDS011;12498;50.880;12.096;2023-05-15T03:34:54;15.90;;;12.70;;
24373;SDS011;12498;50.880;12.096;2023-05-15T03:37:20;15.30;;;11.77;;
24373;SDS011;12498;50.880;12.096;2023-05-15T03:39:46;13.98;;;11.85;;
24373;SDS011;12498;50.880;12.096;2023-05-15T03:42:12;17.80;;;12.75;;
24373;SDS011;12498;50.880;12.096;2023-05-15T03:44:38;14.85;;;11.98;;
24373;SDS011;12498;50.880;12.096;2023-05-15T03:47:05;24.83;;;12.82;;
24373;SDS011;12498;50.880;12.096;2023-05-15T03:49:31;21.55;;;14.45;;
24373;SDS011;12498;50.880;12.096;2023-05-15T03:51:57;22.13;;;16.38;;
24373;SDS011;12498;50.880;12.096;2023-05-15T03:54:23;20.48;;;14.93;;
24373;SDS011;12498;50.880;12.096;2023-05-15T03:56:49;22.23;;;15.57;;
24373;SDS011;12498;50.880;12.096;2023-05-15T03:59:15;18.67;;;13.15;;
24373;SDS011;12498;50.880;12.096;2023-05-15T04:01:41;17.92;;;13.55;;
24373;SDS011;12498;50.880;12.096;2023-05-15T04:04:07;19.33;;;13.93;;
24373;SDS011;12498;50.880;12.096;2023-05-15T04:06:33;20.02;;;13.85;;
24373;SDS011;12498;50.880;12.096;2023-05-15T04:08:59;18.10;;;13.05;;
24373;SDS011;12498;50.880;12.096;2023-05-15T04:11:25;17.98;;;13.57;;
24373;SDS011;12498;50.880;12.096;2023-05-15T04:13:52;16.35;;;13.23;;
24373;SDS011;12498;50.880;12.096;2023-05-15T04:16:18;18.20;;;13.82;;
24373;SDS011;12498;50.880;12.096;2023-05-15T04:18:44;16.08;;;13.10;;
24373;SDS011;12498;50.880;12.096;2023-05-15T04:21:10;17.75;;;13.13;;
24373;SDS011;12498;50.880;12.096;2023-05-15T04:23:36;16.02;;;13.27;;
24373;SDS011;12498;50.880;12.096;2023-05-15T04:26:02;17.52;;;13.50;;
24373;SDS011;12498;50.880;12.096;2023-05-15T04:28:28;34.58;;;21.58;;
24373;SDS011;12498;50.880;12.096;2023-05-15T04:30:54;22.70;;;17.80;;
24373;SDS011;12498;50.880;12.096;2023-05-15T04:33:20;30.17;;;16.17;;
24373;SDS011;12498;50.880;12.096;2023-05-15T04:35:46;17.23;;;12.55;;
24373;SDS011;12498;50.880;12.096;2023-05-15T04:38:12;19.80;;;12.43;;
24373;SDS011;12498;50.880;12.096;2023-05-15T04:40:38;23.83;;;14.65;;
24373;SDS011;12498;50.880;12.096;2023-05-15T04:43:04;16.95;;;12.90;;
24373;SDS011;12498;50.880;12.096;2023-05-15T04:45:30;16.98;;;11.93;;
24373;SDS011;12498;50.880;12.096;2023-05-15T04:47:56;16.83;;;13.48;;
24373;SDS011;12498;50.880;12.096;2023-05-15T04:50:22;18.08;;;13.70;;
24373;SDS011;12498;50.880;12.096;2023-05-15T04:52:48;17.27;;;13.75;;
24373;SDS011;12498;50.880;12.096;2023-05-15T04:55:14;20.02;;;14.30;;
24373;SDS011;12498;50.880;12.096;2023-05-15T04:57:40;22.05;;;14.13;;
24373;SDS011;12498;50.880;12.096;2023-05-15T05:00:06;17.35;;;12.75;;
24373;SDS011;12498;50.880;12.096;2023-05-15T05:02:36;16.38;;;12.68;;
24373;SDS011;12498;50.880;12.096;2023-05-15T05:05:02;17.48;;;13.43;;
24373;SDS011;12498;50.880;12.096;2023-05-15T05:07:28;19.10;;;13.70;;
24373;SDS011;12498;50.880;12.096;2023-05-15T05:09:54;18.80;;;14.77;;
24373;SDS011;12498;50.880;12.096;2023-05-15T05:12:20;26.75;;;18.02;;
24373;SDS011;12498;50.880;12.096;2023-05-15T05:14:46;44.95;;;25.67;;
24373;SDS011;12498;50.880;12.096;2023-05-15T05:17:12;38.22;;;23.20;;
24373;SDS011;12498;50.880;12.096;2023-05-15T05:19:38;57.15;;;28.45;;
24373;SDS011;12498;50.880;12.096;2023-05-15T05:22:04;43.80;;;22.48;;
24373;SDS011;12498;50.880;12.096;2023-05-15T05:24:32;37.85;;;20.60;;
24373;SDS011;12498;50.880;12.096;2023-05-15T05:26:59;39.50;;;23.27;;
24373;SDS011;12498;50.880;12.096;2023-05-15T05:29:25;37.80;;;22.73;;
24373;SDS011;12498;50.880;12.096;2023-05-15T05:31:52;23.83;;;17.13;;
24373;SDS011;12498;50.880;12.096;2023-05-15T05:34:18;30.20;;;19.58;;
24373;SDS011;12498;50.880;12.096;2023-05-15T05:36:44;30.60;;;17.63;;
24373;SDS011;12498;50.880;12.096;2023-05-15T05:39:10;18.05;;;14.68;;
24373;SDS011;12498;50.880;12.096;2023-05-15T05:41:36;22.38;;;15.27;;
24373;SDS011;12498;50.880;12.096;2023-05-15T05:44:02;32.22;;;18.48;;
24373;SDS011;12498;50.880;12.096;2023-05-15T05:46:28;79.18;;;29.70;;
24373;SDS011;12498;50.880;12.096;2023-05-15T05:48:54;37.65;;;19.15;;
24373;SDS011;12498;50.880;12.096;2023-05-15T05:51:20;42.10;;;18.52;;
24373;SDS011;12498;50.880;12.096;2023-05-15T05:53:46;38.40;;;18.38;;
24373;SDS011;12498;50.880;12.096;2023-05-15T05:56:12;42.17;;;18.88;;
24373;SDS011;12498;50.880;12.096;2023-05-15T05:58:38;26.70;;;16.63;;
24373;SDS011;12498;50.880;12.096;2023-05-15T06:01:04;20.38;;;13.60;;
24373;SDS011;12498;50.880;12.096;2023-05-15T06:03:30;19.20;;;14.48;;
24373;SDS011;12498;50.880;12.096;2023-05-15T06:05:58;18.40;;;14.02;;
24373;SDS011;12498;50.880;12.096;2023-05-15T06:08:24;19.63;;;14.63;;
24373;SDS011;12498;50.880;12.096;2023-05-15T06:10:50;27.25;;;19.60;;
24373;SDS011;12498;50.880;12.096;2023-05-15T06:13:16;19.33;;;14.27;;
24373;SDS011;12498;50.880;12.096;2023-05-15T06:15:43;19.08;;;13.77;;
24373;SDS011;12498;50.880;12.096;2023-05-15T06:18:10;19.80;;;14.60;;
24373;SDS011;12498;50.880;12.096;2023-05-15T06:20:36;26.27;;;15.07;;
24373;SDS011;12498;50.880;12.096;2023-05-15T06:23:02;23.20;;;15.95;;
24373;SDS011;12498;50.880;12.096;2023-05-15T06:25:28;20.73;;;15.05;;
24373;SDS011;12498;50.880;12.096;2023-05-15T06:27:55;26.30;;;15.38;;
24373;SDS011;12498;50.880;12.096;2023-05-15T06:30:21;62.08;;;22.00;;
24373;SDS011;12498;50.880;12.096;2023-05-15T06:32:47;59.97;;;21.10;;
24373;SDS011;12498;50.880;12.096;2023-05-15T06:35:12;23.23;;;15.20;;
24373;SDS011;12498;50.880;12.096;2023-05-15T06:37:39;20.33;;;14.10;;
24373;SDS011;12498;50.880;12.096;2023-05-15T06:40:05;28.67;;;14.80;;
24373;SDS011;12498;50.880;12.096;2023-05-15T06:42:31;29.33;;;19.00;;
24373;SDS011;12498;50.880;12.096;2023-05-15T06:44:57;18.77;;;13.00;;
24373;SDS011;12498;50.880;12.096;2023-05-15T06:47:23;21.63;;;15.57;;
24373;SDS011;12498;50.880;12.096;2023-05-15T06:49:49;21.20;;;14.23;;
24373;SDS011;12498;50.880;12.096;2023-05-15T06:52:15;23.92;;;14.63;;
24373;SDS011;12498;50.880;12.096;2023-05-15T06:54:41;52.25;;;25.30;;
24373;SDS011;12498;50.880;12.096;2023-05-15T06:57:07;52.72;;;19.60;;
24373;SDS011;12498;50.880;12.096;2023-05-15T06:59:36;87.95;;;28.42;;
24373;SDS011;12498;50.880;12.096;2023-05-15T07:02:05;41.55;;;20.17;;
24373;SDS011;12498;50.880;12.096;2023-05-15T07:06:57;40.28;;;22.48;;
24373;SDS011;12498;50.880;12.096;2023-05-15T07:09:24;20.23;;;12.57;;
24373;SDS011;12498;50.880;12.096;2023-05-15T07:11:50;19.42;;;11.90;;
24373;SDS011;12498;50.880;12.096;2023-05-15T07:14:16;15.55;;;10.65;;
24373;SDS011;12498;50.880;12.096;2023-05-15T07:16:42;34.75;;;13.70;;
24373;SDS011;12498;50.880;12.096;2023-05-15T07:19:09;59.40;;;18.05;;
24373;SDS011;12498;50.880;12.096;2023-05-15T07:21:35;26.58;;;12.13;;
24373;SDS011;12498;50.880;12.096;2023-05-15T07:24:01;52.67;;;17.27;;
24373;SDS011;12498;50.880;12.096;2023-05-15T07:26:27;19.73;;;11.88;;
24373;SDS011;12498;50.880;12.096;2023-05-15T07:28:53;58.20;;;19.20;;
24373;SDS011;12498;50.880;12.096;2023-05-15T07:31:19;40.30;;;14.98;;
24373;SDS011;12498;50.880;12.096;2023-05-15T07:33:45;40.90;;;14.98;;
24373;SDS011;12498;50.880;12.096;2023-05-15T07:36:11;30.38;;;14.68;;
24373;SDS011;12498;50.880;12.096;2023-05-15T07:38:37;37.33;;;21.60;;
24373;SDS011;12498;50.880;12.096;2023-05-15T07:41:03;27.17;;;12.68;;
24373;SDS011;12498;50.880;12.096;2023-05-15T07:43:29;17.17;;;9.95;;
24373;SDS011;12498;50.880;12.096;2023-05-15T07:45:55;23.33;;;11.70;;
24373;SDS011;12498;50.880;12.096;2023-05-15T07:48:21;23.05;;;12.38;;
24373;SDS011;12498;50.880;12.096;2023-05-15T07:50:47;24.85;;;13.13;;
24373;SDS011;12498;50.880;12.096;2023-05-15T07:53:16;29.25;;;13.65;;
24373;SDS011;12498;50.880;12.096;2023-05-15T07:55:42;18.65;;;9.60;;
24373;SDS011;12498;50.880;12.096;2023-05-15T07:58:08;9.77;;;8.25;;
24373;SDS011;12498;50.880;12.096;2023-05-15T08:00:34;14.93;;;9.63;;
24373;SDS011;12498;50.880;12.096;2023-05-15T08:03:01;15.18;;;8.00;;
24373;SDS011;12498;50.880;12.096;2023-05-15T08:05:27;14.13;;;8.82;;
24373;SDS011;12498;50.880;12.096;2023-05-15T08:07:53;16.23;;;7.88;;
24373;SDS011;12498;50.880;12.096;2023-05-15T08:10:19;15.02;;;8.77;;
24373;SDS011;12498;50.880;12.096;2023-05-15T08:12:45;16.00;;;9.70;;
24373;SDS011;12498;50.880;12.096;2023-05-15T08:15:12;11.25;;;7.60;;
24373;SDS011;12498;50.880;12.096;2023-05-15T08:17:38;11.90;;;7.45;;
24373;SDS011;12498;50.880;12.096;2023-05-15T08:20:05;14.15;;;8.73;;
24373;SDS011;12498;50.880;12.096;2023-05-15T08:22:31;14.13;;;7.65;;
24373;SDS011;12498;50.880;12.096;2023-05-15T08:24:58;11.32;;;7.78;;
24373;SDS011;12498;50.880;12.096;2023-05-15T08:27:27;13.75;;;7.68;;
24373;SDS011;12498;50.880;12.096;2023-05-15T08:29:54;11.63;;;8.05;;
24373;SDS011;12498;50.880;12.096;2023-05-15T08:32:20;12.23;;;7.53;;
24373;SDS011;12498;50.880;12.096;2023-05-15T08:34:46;11.57;;;7.22;;
24373;SDS011;12498;50.880;12.096;2023-05-15T08:37:12;11.25;;;7.55;;
24373;SDS011;12498;50.880;12.096;2023-05-15T08:39:38;14.57;;;8.50;;
24373;SDS011;12498;50.880;12.096;2023-05-15T08:44:48;13.68;;;8.20;;
24373;SDS011;12498;50.880;12.096;2023-05-15T08:47:14;10.85;;;7.60;;
24373;SDS011;12498;50.880;12.096;2023-05-15T08:52:10;12.85;;;8.75;;
24373;SDS011;12498;50.880;12.096;2023-05-15T08:54:36;10.75;;;8.63;;
24373;SDS011;12498;50.880;12.096;2023-05-15T08:57:02;13.82;;;8.55;;
24373;SDS011;12498;50.880;12.096;2023-05-15T08:59:28;15.32;;;7.97;;
24373;SDS011;12498;50.880;12.096;2023-05-15T09:01:54;9.45;;;7.15;;
24373;SDS011;12498;50.880;12.096;2023-05-15T09:04:20;10.73;;;8.00;;
24373;SDS011;12498;50.880;12.096;2023-05-15T09:06:46;11.98;;;7.88;;
24373;SDS011;12498;50.880;12.096;2023-05-15T09:09:12;12.13;;;8.07;;
24373;SDS011;12498;50.880;12.096;2023-05-15T09:11:40;8.73;;;7.40;;
24373;SDS011;12498;50.880;12.096;2023-05-15T09:14:08;12.73;;;6.65;;
24373;SDS011;12498;50.880;12.096;2023-05-15T09:16:34;10.43;;;6.25;;
24373;SDS011;12498;50.880;12.096;2023-05-15T09:19:01;18.75;;;6.30;;
24373;SDS011;12498;50.880;12.096;2023-05-15T09:21:28;9.18;;;6.10;;
24373;SDS011;12498;50.880;12.096;2023-05-15T09:24:14;11.70;;;6.65;;
24373;SDS011;12498;50.880;12.096;2023-05-15T09:26:41;10.82;;;7.03;;
24373;SDS011;12498;50.880;12.096;2023-05-15T09:29:07;11.02;;;7.15;;
24373;SDS011;12498;50.880;12.096;2023-05-15T09:31:33;12.10;;;7.47;;
24373;SDS011;12498;50.880;12.096;2023-05-15T09:34:00;10.70;;;6.80;;
24373;SDS011;12498;50.880;12.096;2023-05-15T09:36:28;11.60;;;7.10;;
24373;SDS011;12498;50.880;12.096;2023-05-15T09:38:58;11.32;;;7.32;;
24373;SDS011;12498;50.880;12.096;2023-05-15T09:43:51;14.98;;;7.35;;
24373;SDS011;12498;50.880;12.096;2023-05-15T09:46:17;9.80;;;7.18;;
24373;SDS011;12498;50.880;12.096;2023-05-15T09:48:43;7.82;;;6.20;;
24373;SDS011;12498;50.880;12.096;2023-05-15T09:51:15;10.90;;;7.30;;
24373;SDS011;12498;50.880;12.096;2023-05-15T09:53:44;11.50;;;7.38;;
24373;SDS011;12498;50.880;12.096;2023-05-15T09:56:13;9.52;;;7.43;;
24373;SDS011;12498;50.880;12.096;2023-05-15T09:58:50;9.57;;;7.20;;
24373;SDS011;12498;50.880;12.096;2023-05-15T10:01:18;10.27;;;7.57;;
24373;SDS011;12498;50.880;12.096;2023-05-15T10:03:55;11.32;;;7.80;;
24373;SDS011;12498;50.880;12.096;2023-05-15T10:06:21;9.73;;;6.93;;
24373;SDS011;12498;50.880;12.096;2023-05-15T10:08:53;9.60;;;6.40;;
24373;SDS011;12498;50.880;12.096;2023-05-15T10:11:19;10.80;;;6.15;;
24373;SDS011;12498;50.880;12.096;2023-05-15T10:13:46;9.40;;;5.32;;
24373;SDS011;12498;50.880;12.096;2023-05-15T10:16:13;6.47;;;4.60;;
24373;SDS011;12498;50.880;12.096;2023-05-15T10:18:39;6.65;;;4.40;;
24373;SDS011;12498;50.880;12.096;2023-05-15T10:21:08;5.78;;;4.30;;
24373;SDS011;12498;50.880;12.096;2023-05-15T10:23:35;8.52;;;4.20;;
24373;SDS011;12498;50.880;12.096;2023-05-15T10:26:25;5.47;;;3.80;;
24373;SDS011;12498;50.880;12.096;2023-05-15T10:28:54;5.43;;;4.47;;
24373;SDS011;12498;50.880;12.096;2023-05-15T10:31:21;9.10;;;3.70;;
24373;SDS011;12498;50.880;12.096;2023-05-15T10:33:49;7.25;;;3.65;;
24373;SDS011;12498;50.880;12.096;2023-05-15T10:36:16;7.32;;;4.20;;
24373;SDS011;12498;50.880;12.096;2023-05-15T10:38:42;5.95;;;3.92;;
24373;SDS011;12498;50.880;12.096;2023-05-15T10:41:09;7.20;;;4.30;;
24373;SDS011;12498;50.880;12.096;2023-05-15T10:43:36;10.05;;;4.90;;
24373;SDS011;12498;50.880;12.096;2023-05-15T10:46:02;7.72;;;5.38;;
24373;SDS011;12498;50.880;12.096;2023-05-15T10:48:28;10.95;;;7.15;;
24373;SDS011;12498;50.880;12.096;2023-05-15T10:50:55;9.75;;;6.20;;
24373;SDS011;12498;50.880;12.096;2023-05-15T10:53:21;6.47;;;5.03;;
24373;SDS011;12498;50.880;12.096;2023-05-15T10:55:50;9.32;;;5.13;;
24373;SDS011;12498;50.880;12.096;2023-05-15T11:00:43;8.73;;;4.93;;
24373;SDS011;12498;50.880;12.096;2023-05-15T11:03:13;11.65;;;4.85;;
24373;SDS011;12498;50.880;12.096;2023-05-15T11:10:42;9.35;;;4.75;;
24373;SDS011;12498;50.880;12.096;2023-05-15T11:13:08;10.77;;;5.07;;
24373;SDS011;12498;50.880;12.096;2023-05-15T11:15:46;13.73;;;4.68;;
24373;SDS011;12498;50.880;12.096;2023-05-15T11:18:12;7.93;;;4.70;;
24373;SDS011;12498;50.880;12.096;2023-05-15T11:21:20;5.75;;;4.10;;
24373;SDS011;12498;50.880;12.096;2023-05-15T11:23:28;5.55;;;3.50;;
24373;SDS011;12498;50.880;12.096;2023-05-15T11:26:02;5.20;;;3.97;;
24373;SDS011;12498;50.880;12.096;2023-05-15T11:28:30;7.82;;;3.80;;
24373;SDS011;12498;50.880;12.096;2023-05-15T11:30:59;6.00;;;4.13;;
24373;SDS011;12498;50.880;12.096;2023-05-15T11:33:28;7.30;;;4.30;;
24373;SDS011;12498;50.880;12.096;2023-05-15T11:35:58;11.30;;;6.85;;
24373;SDS011;12498;50.880;12.096;2023-05-15T11:38:24;7.38;;;4.20;;
24373;SDS011;12498;50.880;12.096;2023-05-15T11:40:51;6.07;;;4.40;;
24373;SDS011;12498;50.880;12.096;2023-05-15T11:43:20;9.35;;;4.32;;
24373;SDS011;12498;50.880;12.096;2023-05-15T11:45:49;6.80;;;4.47;;
24373;SDS011;12498;50.880;12.096;2023-05-15T11:48:16;6.80;;;4.00;;
24373;SDS011;12498;50.880;12.096;2023-05-15T11:50:44;10.25;;;4.03;;
24373;SDS011;12498;50.880;12.096;2023-05-15T11:53:10;7.95;;;4.70;;
24373;SDS011;12498;50.880;12.096;2023-05-15T11:55:37;7.63;;;4.57;;
24373;SDS011;12498;50.880;12.096;2023-05-15T11:58:09;11.10;;;4.70;;
24373;SDS011;12498;50.880;12.096;2023-05-15T12:00:36;6.65;;;4.22;;
24373;SDS011;12498;50.880;12.096;2023-05-15T12:03:05;9.15;;;4.78;;
24373;SDS011;12498;50.880;12.096;2023-05-15T12:05:31;7.10;;;4.50;;
24373;SDS011;12498;50.880;12.096;2023-05-15T12:08:00;9.63;;;5.00;;
24373;SDS011;12498;50.880;12.096;2023-05-15T12:10:26;10.15;;;5.25;;
24373;SDS011;12498;50.880;12.096;2023-05-15T12:12:52;8.88;;;4.60;;
24373;SDS011;12498;50.880;12.096;2023-05-15T12:15:18;6.35;;;4.70;;
24373;SDS011;12498;50.880;12.096;2023-05-15T12:17:48;8.27;;;5.05;;
24373;SDS011;12498;50.880;12.096;2023-05-15T12:20:16;11.65;;;4.97;;
24373;SDS011;12498;50.880;12.096;2023-05-15T12:22:43;8.23;;;4.78;;
24373;SDS011;12498;50.880;12.096;2023-05-15T12:25:10;8.82;;;4.90;;
24373;SDS011;12498;50.880;12.096;2023-05-15T12:27:37;6.47;;;4.72;;
24373;SDS011;12498;50.880;12.096;2023-05-15T12:30:03;15.55;;;5.00;;
24373;SDS011;12498;50.880;12.096;2023-05-15T12:32:30;12.23;;;5.13;;
24373;SDS011;12498;50.880;12.096;2023-05-15T12:34:56;8.05;;;4.90;;
24373;SDS011;12498;50.880;12.096;2023-05-15T12:37:22;10.57;;;5.00;;
24373;SDS011;12498;50.880;12.096;2023-05-15T12:39:52;9.93;;;4.93;;
24373;SDS011;12498;50.880;12.096;2023-05-15T12:42:19;6.13;;;4.35;;
24373;SDS011;12498;50.880;12.096;2023-05-15T12:44:48;10.45;;;3.83;;
24373;SDS011;12498;50.880;12.096;2023-05-15T12:47:19;8.70;;;4.03;;
24373;SDS011;12498;50.880;12.096;2023-05-15T12:49:46;5.95;;;3.90;;
24373;SDS011;12498;50.880;12.096;2023-05-15T12:52:13;5.38;;;3.80;;
24373;SDS011;12498;50.880;12.096;2023-05-15T12:54:40;7.13;;;4.50;;
24373;SDS011;12498;50.880;12.096;2023-05-15T12:57:12;9.55;;;4.20;;
24373;SDS011;12498;50.880;12.096;2023-05-15T12:59:38;5.43;;;3.88;;
24373;SDS011;12498;50.880;12.096;2023-05-15T13:02:11;8.65;;;3.85;;
24373;SDS011;12498;50.880;12.096;2023-05-15T13:04:38;11.07;;;3.67;;
24373;SDS011;12498;50.880;12.096;2023-05-15T13:07:04;10.73;;;5.30;;
24373;SDS011;12498;50.880;12.096;2023-05-15T13:09:30;9.40;;;4.65;;
24373;SDS011;12498;50.880;12.096;2023-05-15T13:11:57;8.20;;;4.10;;
24373;SDS011;12498;50.880;12.096;2023-05-15T13:14:27;9.70;;;3.92;;
24373;SDS011;12498;50.880;12.096;2023-05-15T13:19:22;11.13;;;4.30;;
24373;SDS011;12498;50.880;12.096;2023-05-15T13:21:48;11.75;;;8.43;;
24373;SDS011;12498;50.880;12.096;2023-05-15T13:24:14;7.20;;;3.92;;
24373;SDS011;12498;50.880;12.096;2023-05-15T13:26:40;9.30;;;3.80;;
24373;SDS011;12498;50.880;12.096;2023-05-15T13:29:06;13.52;;;3.88;;
24373;SDS011;12498;50.880;12.096;2023-05-15T13:31:32;7.20;;;3.75;;
24373;SDS011;12498;50.880;12.096;2023-05-15T13:33:58;9.25;;;3.65;;
24373;SDS011;12498;50.880;12.096;2023-05-15T13:36:24;11.48;;;3.67;;
24373;SDS011;12498;50.880;12.096;2023-05-15T13:38:50;7.75;;;4.10;;
24373;SDS011;12498;50.880;12.096;2023-05-15T13:41:16;10.43;;;4.60;;
24373;SDS011;12498;50.880;12.096;2023-05-15T13:43:42;5.75;;;4.30;;
24373;SDS011;12498;50.880;12.096;2023-05-15T13:46:08;12.25;;;4.10;;
24373;SDS011;12498;50.880;12.096;2023-05-15T13:48:35;9.02;;;4.50;;
24373;SDS011;12498;50.880;12.096;2023-05-15T13:51:01;7.32;;;4.30;;
24373;SDS011;12498;50.880;12.096;2023-05-15T13:53:27;6.38;;;4.13;;
24373;SDS011;12498;50.880;12.096;2023-05-15T13:55:53;7.50;;;4.20;;
24373;SDS011;12498;50.880;12.096;2023-05-15T13:58:19;10.25;;;3.83;;
24373;SDS011;12498;50.880;12.096;2023-05-15T14:00:45;7.15;;;4.30;;
24373;SDS011;12498;50.880;12.096;2023-05-15T14:03:11;10.82;;;3.78;;
24373;SDS011;12498;50.880;12.096;2023-05-15T14:05:39;9.35;;;4.10;;
24373;SDS011;12498;50.880;12.096;2023-05-15T14:08:05;9.52;;;4.25;;
24373;SDS011;12498;50.880;12.096;2023-05-15T14:10:31;7.63;;;4.13;;
24373;SDS011;12498;50.880;12.096;2023-05-15T14:12:57;7.28;;;3.92;;
24373;SDS011;12498;50.880;12.096;2023-05-15T14:15:23;7.10;;;3.60;;
24373;SDS011;12498;50.880;12.096;2023-05-15T14:17:49;7.63;;;4.20;;
24373;SDS011;12498;50.880;12.096;2023-05-15T14:20:15;10.38;;;4.45;;
24373;SDS011;12498;50.880;12.096;2023-05-15T14:22:41;9.70;;;4.00;;
24373;SDS011;12498;50.880;12.096;2023-05-15T14:25:07;7.65;;;4.15;;
24373;SDS011;12498;50.880;12.096;2023-05-15T14:27:33;11.77;;;4.30;;
24373;SDS011;12498;50.880;12.096;2023-05-15T14:29:59;6.45;;;3.85;;
24373;SDS011;12498;50.880;12.096;2023-05-15T14:32:26;6.57;;;4.00;;
24373;SDS011;12498;50.880;12.096;2023-05-15T14:34:52;9.60;;;4.28;;
24373;SDS011;12498;50.880;12.096;2023-05-15T14:37:18;9.40;;;3.92;;
24373;SDS011;12498;50.880;12.096;2023-05-15T14:39:44;12.50;;;4.55;;
24373;SDS011;12498;50.880;12.096;2023-05-15T14:42:10;8.48;;;4.13;;
24373;SDS011;12498;50.880;12.096;2023-05-15T14:44:36;11.05;;;4.07;;
24373;SDS011;12498;50.880;12.096;2023-05-15T14:47:11;9.85;;;4.45;;
24373;SDS011;12498;50.880;12.096;2023-05-15T14:49:37;8.40;;;4.32;;
24373;SDS011;12498;50.880;12.096;2023-05-15T14:52:04;8.45;;;4.50;;